, Novosibirsk Tolmachevo Airport (UNNT)

NameNovosibirsk Tolmachevo Airport
City
CountryRussia
ICAOUNNT
IATAOVB
Altitude111 m
CoordinatesGoogle Map
Live Air TrafficLiveATC.net
METARUNNT 131300Z 09001MPS 9999 -SHRA FEW009 OVC029CB 06/05 Q1007 R07/290160 R34/290160 NOSIG RMK QFE745/0994
2018-05-13 13:00:00 Wind: East (90°) 1 m/s - Visibility: > 10000 m - Weather: Light Showers Rain - Temperature: 6 °C - Dew point: 5 °C - Humidity: 93.4% - Pressure: 1007 hPa
Statistics

The table below shows the detailed information of all flights to/from , Novosibirsk Tolmachevo Airport (UNNT).